Huvudsida
METAR-TAF:

METAR-TAF

Flygplatser :

Kiruna Airport

Kiruna, Sverige

latitud: 67-49N, longitud: 020-20E, höjd: 452 m

Aktuellt väderrapport

Denna rapport gjordes för 15 minuter sedan, klockan 05:50 UTC
Vind 5 kt från ost/sydost
Temperatur 8°C
Fuktighet 100%
Tryck 976 hPa
Sikt 10 km eller mer
Mulet på en höjd av 200 ft
lätt regn

METAR: ESNQ 220550Z 11005KT 9999 -RA OVC002 08/08 Q0976

Tid: 08:05 (06:05 UTC)

Väderprognos

Denna rapport gjordes för 35 minuter sedan, klockan 05:30 UTC
Prognos gäller från 22 kl. 06 UTC till 22 kl. 10 UTC
Vind 6 kt från ost
Sikt: 6000 m
Brutna moln på en höjd av 200 ft
lätt regn
Blir
från 22 kl. 06 UTC till 22 kl. 08 UTC
Vind 15 kt från syd/sydost
Brutna moln på en höjd av 500 ft
Blir
från 22 kl. 08 UTC till 22 kl. 10 UTC
Vind 16 kt från syd i byarna ända upp till 26 kt
Spridda moln på en höjd av 1500 ft

TAF: ESNQ 220530Z 2206/2210 10006KT 6000 -RA BKN002 BECMG 2206/2208 16015KT BKN005 BECMG 2208/2210 18016G26KT SCT015

Aktuella väderrapporter och prognoser från 4000 flygplatser (METAR- och TAF-rapporter).

De tillgängliga stationerna syns som gula och röda prickar på kartan.

För musen över prickarna för att se namnen på stationerna.

Klicka sedan för att få väderrapporter och prognoser.

För att ändra kartan: Klicka på de gröna knapparna med ett svart kors på för att zooma in; den gröna knappen med ett streck på för att zooma ut; eller på de gröna pilarna för angränsande kartor.


METAR-TAF: